Time;durP1;ratioP1;P1;durP2;ratioP2;P2;SDS_P1;SDS_P2;PMS_P1;PMS_P2;Temp;Humidity;BMP_temperature;BMP_pressure;BME280_temperature;BME280_humidity;BME280_pressure;Samples;Min_cycle;Max_cycle;Signal;HPM_P1;HPM_P2
2022/10/06 00:01:42;;;;;;;0.00;0.00;;;18.30;87.20;;;;;;4176002;28;20052;-70
2022/10/06 00:04:23;;;;;;;0.00;0.00;;;18.30;87.20;;;;;;4176070;28;20112;-69
2022/10/06 00:07:04;;;;;;;0.00;0.00;;;18.30;87.20;;;;;;4167351;28;20052;-69
2022/10/06 00:09:45;;;;;;;0.00;0.00;;;18.20;87.20;;;;;;4176063;28;20055;-70
2022/10/06 00:12:27;;;;;;;0.00;0.00;;;18.20;87.30;;;;;;4192275;28;20141;-69
2022/10/06 00:15:10;;;;;;;0.00;0.00;;;18.20;87.20;;;;;;4192463;28;20378;-69
2022/10/06 00:17:51;;;;;;;0.00;0.00;;;18.20;87.30;;;;;;4190200;28;20114;-69
2022/10/06 00:20:32;;;;;;;0.00;0.00;;;18.20;87.10;;;;;;4191790;28;20522;-69
2022/10/06 00:23:13;;;;;;;0.00;0.00;;;18.20;87.30;;;;;;4180383;28;20055;-69
2022/10/06 00:25:54;;;;;;;0.00;0.00;;;18.20;87.20;;;;;;4192004;28;20454;-69
2022/10/06 00:28:38;;;;;;;0.00;0.00;;;18.20;87.20;;;;;;4192041;28;20063;-69
2022/10/06 00:31:19;;;;;;;0.00;0.00;;;18.20;87.20;;;;;;4203275;28;20056;-69
2022/10/06 00:34:00;;;;;;;0.00;0.00;;;18.20;87.20;;;;;;4192857;28;20055;-68
2022/10/06 00:36:42;;;;;;;0.00;0.00;;;18.20;87.30;;;;;;4191003;28;20059;-68
2022/10/06 00:39:23;;;;;;;0.00;0.00;;;18.20;87.20;;;;;;4163420;28;20056;-68
2022/10/06 00:42:04;;;;;;;0.00;0.00;;;18.20;87.20;;;;;;4173766;28;20044;-68
2022/10/06 00:44:50;;;;;;;0.00;0.00;;;18.20;87.30;;;;;;4175035;28;20086;-68
2022/10/06 00:47:32;;;;;;;0.00;0.00;;;18.20;87.30;;;;;;4179316;28;20044;-69
2022/10/06 00:50:15;;;;;;;0.00;0.00;;;18.20;87.20;;;;;;4190568;28;20051;-70
2022/10/06 00:52:56;;;;;;;0.00;0.00;;;18.20;87.30;;;;;;4192573;28;20118;-70
2022/10/06 00:55:38;;;;;;;0.00;0.00;;;18.20;87.40;;;;;;4190590;28;20153;-71
2022/10/06 00:58:18;;;;;;;0.00;0.00;;;18.20;87.30;;;;;;4162282;28;20670;-71
2022/10/06 01:01:02;;;;;;;0.00;0.00;;;18.20;87.20;;;;;;4189903;28;20055;-71
2022/10/06 01:03:49;;;;;;;0.00;0.00;;;18.20;87.20;;;;;;4191595;28;20044;-71
2022/10/06 01:06:40;;;;;;;0.00;0.00;;;18.20;87.20;;;;;;4191586;28;20078;-71
2022/10/06 01:09:22;;;;;;;;;;;18.20;87.20;;;;;;4174765;28;20537;-71
2022/10/06 01:12:07;;;;;;;0.00;0.00;;;18.20;87.20;;;;;;4174669;28;20313;-71
2022/10/06 01:14:48;;;;;;;0.00;0.00;;;18.20;87.30;;;;;;4179959;28;20518;-71
2022/10/06 01:17:36;;;;;;;0.00;0.00;;;18.20;87.30;;;;;;4192268;28;20171;-72
2022/10/06 01:20:19;;;;;;;0.00;0.00;;;18.10;87.30;;;;;;4202463;28;20187;-71
2022/10/06 01:23:03;;;;;;;0.00;0.00;;;18.10;87.40;;;;;;4190381;28;20059;-71
2022/10/06 01:25:45;;;;;;;0.00;0.00;;;18.10;87.30;;;;;;4190837;28;20046;-69
2022/10/06 01:28:27;;;;;;;0.00;0.00;;;18.10;87.30;;;;;;4184557;28;20178;-70
2022/10/06 01:31:09;;;;;;;0.00;0.00;;;18.10;87.30;;;;;;4174789;28;20134;-72
2022/10/06 01:33:53;;;;;;;0.00;0.00;;;18.10;87.30;;;;;;4162758;28;20052;-72
2022/10/06 01:36:34;;;;;;;0.00;0.00;;;18.10;87.10;;;;;;4150346;28;20052;-71
2022/10/06 01:39:16;;;;;;;0.00;0.00;;;18.10;87.20;;;;;;4159031;28;20056;-72
2022/10/06 01:41:57;;;;;;;0.00;0.00;;;18.10;87.30;;;;;;4174049;28;20115;-72
2022/10/06 01:44:38;;;;;;;0.00;0.00;;;18.10;87.20;;;;;;4176869;28;20052;-73
2022/10/06 01:47:19;;;;;;;0.00;0.00;;;18.10;87.30;;;;;;4190495;28;20137;-72
2022/10/06 01:50:00;;;;;;;0.00;0.00;;;18.10;87.30;;;;;;4191384;28;20125;-71
2022/10/06 01:52:42;;;;;;;0.00;0.00;;;18.10;87.30;;;;;;4190767;28;20281;-72
2022/10/06 01:55:25;;;;;;;0.00;0.00;;;18.10;87.10;;;;;;4183063;28;20058;-72
2022/10/06 01:58:08;;;;;;;0.00;0.00;;;18.10;87.30;;;;;;4190482;28;20048;-71
2022/10/06 02:00:49;;;;;;;;;;;18.10;87.50;;;;;;4178280;28;20117;-71
2022/10/06 02:03:30;;;;;;;0.00;0.00;;;18.10;87.20;;;;;;4172156;28;19999;-72
2022/10/06 02:06:11;;;;;;;0.00;0.00;;;18.00;87.00;;;;;;4174096;28;20803;-72
2022/10/06 02:08:55;;;;;;;0.00;0.00;;;18.00;87.20;;;;;;4179027;28;20703;-72
2022/10/06 02:11:37;;;;;;;0.00;0.00;;;18.00;88.20;;;;;;4188939;28;20047;-72
2022/10/06 02:14:18;;;;;;;0.00;0.00;;;18.00;87.50;;;;;;4188781;28;20510;-72
2022/10/06 02:17:00;;;;;;;;;;;18.00;87.40;;;;;;4165145;28;20060;-72
2022/10/06 02:19:40;;;;;;;0.00;0.00;;;18.00;87.40;;;;;;4177375;28;19928;-72
2022/10/06 02:22:21;;;;;;;0.00;0.00;;;18.00;87.50;;;;;;4192384;28;20051;-71
2022/10/06 02:25:02;;;;;;;0.00;0.00;;;18.00;87.50;;;;;;4177458;28;20055;-71
2022/10/06 02:27:45;;;;;;;0.00;0.00;;;18.00;87.50;;;;;;4193201;28;20422;-71
2022/10/06 02:30:26;;;;;;;0.00;0.00;;;18.00;87.50;;;;;;4165758;28;20561;-71
2022/10/06 02:33:07;;;;;;;0.00;0.00;;;18.00;87.40;;;;;;4168690;28;20490;-71
2022/10/06 02:35:53;;;;;;;0.00;0.00;;;18.00;87.30;;;;;;4194608;28;20750;-71
2022/10/06 02:38:35;;;;;;;0.00;0.00;;;18.00;87.50;;;;;;4193318;28;20165;-71
2022/10/06 02:41:19;;;;;;;0.00;0.00;;;18.00;87.50;;;;;;4181923;28;20051;-71
2022/10/06 02:44:02;;;;;;;0.00;0.00;;;18.00;87.60;;;;;;4170952;28;20044;-71
2022/10/06 02:46:43;;;;;;;0.00;0.00;;;17.90;87.60;;;;;;4188680;28;20503;-70
2022/10/06 02:49:24;;;;;;;0.00;0.00;;;17.90;87.50;;;;;;4153818;28;20176;-71
2022/10/06 02:52:05;;;;;;;0.00;0.00;;;17.90;87.60;;;;;;4176692;28;20553;-71
2022/10/06 02:54:46;;;;;;;0.00;0.00;;;17.90;87.60;;;;;;4191948;28;20051;-71
2022/10/06 02:57:27;;;;;;;0.00;0.00;;;17.90;87.50;;;;;;4181610;28;20047;-71
2022/10/06 03:00:11;;;;;;;0.00;0.00;;;17.90;87.50;;;;;;4192939;28;20278;-72
2022/10/06 03:02:53;;;;;;;0.00;0.00;;;17.90;87.60;;;;;;4204699;28;20101;-72
2022/10/06 03:05:34;;;;;;;0.00;0.00;;;17.90;87.60;;;;;;4160543;28;20275;-73
2022/10/06 03:08:15;;;;;;;0.00;0.00;;;17.90;87.50;;;;;;4164906;28;20187;-72
2022/10/06 03:11:01;;;;;;;0.00;0.00;;;17.90;87.60;;;;;;4163455;28;20048;-71
2022/10/06 03:13:42;;;;;;;0.00;0.00;;;17.90;87.40;;;;;;4179049;28;20182;-72
2022/10/06 03:16:27;;;;;;;0.00;0.00;;;17.90;87.50;;;;;;4193578;28;20102;-73
2022/10/06 03:19:11;;;;;;;0.00;0.00;;;17.90;87.50;;;;;;4180725;28;20073;-73
2022/10/06 03:21:53;;;;;;;0.00;0.00;;;17.90;87.60;;;;;;4192940;28;20054;-72
2022/10/06 03:24:40;;;;;;;0.98;0.55;;;17.90;87.60;;;;;;4192420;28;20051;-72
2022/10/06 03:27:21;;;;;;;0.00;0.00;;;17.90;87.60;;;;;;4176523;28;20075;-72
2022/10/06 03:30:05;;;;;;;0.00;0.00;;;17.80;87.50;;;;;;4191740;28;20549;-72
2022/10/06 03:32:51;;;;;;;0.00;0.00;;;17.90;87.60;;;;;;4192036;28;20094;-73
2022/10/06 03:35:32;;;;;;;0.00;0.00;;;17.80;87.70;;;;;;4164725;28;20107;-72
2022/10/06 03:38:14;;;;;;;0.10;0.10;;;17.80;87.60;;;;;;4181103;28;20059;-72
2022/10/06 03:41:01;;;;;;;;;;;17.80;87.60;;;;;;4177331;28;20095;-73
2022/10/06 03:43:44;;;;;;;0.00;0.00;;;17.80;87.40;;;;;;4161279;28;19932;-72
2022/10/06 03:46:27;;;;;;;0.00;0.00;;;17.80;87.50;;;;;;4162510;28;20056;-74
2022/10/06 03:49:10;;;;;;;0.00;0.00;;;17.80;87.60;;;;;;4165420;28;20202;-72
2022/10/06 03:51:54;;;;;;;0.00;0.00;;;17.80;87.50;;;;;;4180341;28;20490;-71
2022/10/06 03:54:39;;;;;;;0.00;0.00;;;17.80;88.30;;;;;;4180550;28;20051;-71
2022/10/06 03:57:21;;;;;;;0.00;0.00;;;17.80;87.40;;;;;;4180533;28;20055;-72
2022/10/06 04:00:01;;;;;;;0.00;0.00;;;17.80;87.40;;;;;;4167066;28;20404;-72
2022/10/06 04:02:51;;;;;;;0.00;0.00;;;17.80;87.40;;;;;;4176047;28;20502;-72
2022/10/06 04:05:34;;;;;;;0.00;0.00;;;17.80;87.50;;;;;;4192965;28;20185;-72
2022/10/06 04:08:15;;;;;;;0.00;0.00;;;17.80;87.50;;;;;;4192445;28;20055;-72
2022/10/06 04:11:04;;;;;;;0.00;0.00;;;17.80;87.40;;;;;;4176147;28;20052;-73
2022/10/06 04:13:45;;;;;;;0.00;0.00;;;17.70;87.40;;;;;;4164340;28;21153;-72
2022/10/06 04:16:29;;;;;;;0.00;0.00;;;17.70;87.50;;;;;;4152587;28;20105;-75
2022/10/06 04:19:11;;;;;;;0.00;0.00;;;17.80;87.50;;;;;;4180070;28;20047;-72
2022/10/06 04:21:57;;;;;;;0.00;0.00;;;17.80;87.50;;;;;;4180595;28;20051;-72
2022/10/06 04:24:39;;;;;;;0.00;0.00;;;17.80;87.50;;;;;;4180101;28;20106;-72
2022/10/06 04:27:29;;;;;;;0.00;0.00;;;17.70;87.40;;;;;;4179531;28;20182;-72
2022/10/06 04:30:23;;;;;;;0.90;0.90;;;17.80;87.50;;;;;;4158540;28;20068;-71
2022/10/06 04:33:05;;;;;;;0.00;0.00;;;17.70;87.70;;;;;;4160893;28;20538;-72
2022/10/06 04:35:46;;;;;;;0.00;0.00;;;17.70;87.50;;;;;;4147163;28;20048;-72
2022/10/06 04:38:29;;;;;;;0.47;0.47;;;17.70;87.40;;;;;;4174204;28;20118;-73
2022/10/06 04:41:13;;;;;;;0.13;0.13;;;17.70;87.40;;;;;;4146651;28;20111;-73
2022/10/06 04:43:54;;;;;;;0.00;0.00;;;17.80;87.40;;;;;;4164175;28;20052;-73
2022/10/06 04:46:36;;;;;;;0.00;0.00;;;17.70;87.50;;;;;;4175183;28;20187;-73
2022/10/06 04:49:25;;;;;;;0.00;0.00;;;17.70;87.50;;;;;;4180605;28;20060;-73
2022/10/06 04:52:07;;;;;;;0.00;0.00;;;17.70;87.50;;;;;;4192576;28;20059;-73
2022/10/06 04:54:52;;;;;;;0.00;0.00;;;17.70;87.50;;;;;;4186772;28;20641;-73
2022/10/06 04:57:33;;;;;;;0.00;0.00;;;17.70;87.40;;;;;;4183437;28;20407;-73
2022/10/06 05:00:24;;;;;;;0.15;0.15;;;17.70;87.40;;;;;;4193677;28;20422;-73
2022/10/06 05:03:05;;;;;;;0.10;0.10;;;17.70;87.40;;;;;;4192862;28;20368;-72
2022/10/06 05:05:46;;;;;;;0.00;0.00;;;17.70;87.40;;;;;;4194222;28;20114;-73
2022/10/06 05:08:27;;;;;;;0.00;0.00;;;17.70;87.40;;;;;;4187766;28;20056;-73
2022/10/06 05:11:11;;;;;;;0.00;0.00;;;17.70;87.50;;;;;;4191548;28;20048;-74
2022/10/06 05:13:57;;;;;;;0.00;0.00;;;17.60;88.20;;;;;;4190763;28;20059;-73
2022/10/06 05:16:41;;;;;;;0.00;0.00;;;17.60;87.80;;;;;;4192510;28;20121;-72
2022/10/06 05:19:24;;;;;;;0.00;0.00;;;17.70;88.00;;;;;;4174058;28;20059;-72
2022/10/06 05:22:05;;;;;;;0.00;0.00;;;17.70;87.70;;;;;;4180174;28;20403;-71
2022/10/06 05:24:52;;;;;;;0.00;0.00;;;17.70;87.60;;;;;;4169506;28;20557;-70
2022/10/06 05:27:34;;;;;;;0.00;0.00;;;17.70;87.50;;;;;;4179763;28;20059;-71
2022/10/06 05:30:15;;;;;;;0.00;0.00;;;17.70;87.50;;;;;;4200883;28;20047;-71
2022/10/06 05:32:56;;;;;;;0.00;0.00;;;17.70;87.50;;;;;;4192446;28;20517;-71
2022/10/06 05:35:37;;;;;;;0.00;0.00;;;17.60;87.30;;;;;;4193428;28;20052;-71
2022/10/06 05:38:18;;;;;;;34.25;1.55;;;17.60;87.40;;;;;;4191435;28;20051;-71
2022/10/06 05:41:04;;;;;;;0.00;0.00;;;17.60;87.40;;;;;;4190751;28;20169;-71
2022/10/06 05:43:47;;;;;;;0.00;0.00;;;17.60;87.40;;;;;;4175466;28;20060;-70
2022/10/06 05:46:30;;;;;;;0.00;0.00;;;17.60;87.30;;;;;;4191632;28;20073;-72
2022/10/06 05:49:12;;;;;;;0.00;0.00;;;17.60;87.30;;;;;;4175033;28;20181;-72
2022/10/06 05:52:04;;;;;;;0.00;0.00;;;17.60;87.40;;;;;;4176702;28;20134;-71
2022/10/06 05:54:47;;;;;;;0.00;0.00;;;17.60;87.40;;;;;;4174913;28;20051;-70
2022/10/06 05:57:28;;;;;;;0.00;0.00;;;17.60;87.30;;;;;;4188550;28;20113;-70
2022/10/06 06:00:12;;;;;;;0.00;0.00;;;17.60;87.30;;;;;;4190393;28;20051;-71
2022/10/06 06:02:55;;;;;;;0.85;0.85;;;17.50;87.40;;;;;;4160800;28;20048;-72
2022/10/06 06:05:41;;;;;;;0.10;0.10;;;17.60;87.40;;;;;;4182139;28;20113;-71
2022/10/06 06:08:22;;;;;;;0.00;0.00;;;17.50;87.40;;;;;;4164153;28;20167;-71
2022/10/06 06:11:07;;;;;;;0.00;0.00;;;17.60;87.50;;;;;;4176990;28;20047;-72
2022/10/06 06:13:48;;;;;;;17.90;0.90;;;17.50;87.40;;;;;;4190509;28;20511;-71
2022/10/06 06:16:30;;;;;;;0.00;0.00;;;17.50;87.40;;;;;;4178571;28;20403;-73
2022/10/06 06:19:13;;;;;;;0.00;0.00;;;17.50;87.40;;;;;;4178279;28;20059;-73
2022/10/06 06:21:56;;;;;;;0.00;0.00;;;17.50;87.40;;;;;;4177949;28;20068;-72
2022/10/06 06:24:37;;;;;;;0.00;0.00;;;17.50;87.30;;;;;;4188432;28;20150;-71
2022/10/06 06:27:19;;;;;;;0.00;0.00;;;17.50;87.90;;;;;;4189947;28;20588;-72
2022/10/06 06:30:00;;;;;;;0.10;0.10;;;17.50;86.80;;;;;;4203654;28;20138;-71
2022/10/06 06:32:43;;;;;;;3.30;2.28;;;17.50;86.30;;;;;;4192227;28;20039;-72
2022/10/06 06:35:25;;;;;;;0.03;0.03;;;17.50;85.90;;;;;;4190086;28;20059;-73
2022/10/06 06:38:10;;;;;;;1.60;1.50;;;17.50;85.40;;;;;;4161313;28;20056;-73
2022/10/06 06:40:51;;;;;;;0.10;0.10;;;17.50;85.00;;;;;;4176015;28;20152;-74
2022/10/06 06:43:33;;;;;;;0.00;0.00;;;17.50;84.60;;;;;;4181777;28;20130;-73
2022/10/06 06:46:32;;;;;;;0.08;0.08;;;17.50;84.30;;;;;;4189922;28;20098;-74
2022/10/06 06:49:21;;;;;;;0.00;0.00;;;17.50;84.20;;;;;;4184028;28;20451;-73
2022/10/06 06:52:07;;;;;;;0.00;0.00;;;17.40;83.90;;;;;;4189753;28;20490;-73
2022/10/06 06:54:50;;;;;;;0.00;0.00;;;17.40;83.60;;;;;;4189267;28;20068;-73
2022/10/06 06:57:31;;;;;;;0.25;0.25;;;17.40;83.20;;;;;;4185700;28;20052;-72
2022/10/06 07:00:15;;;;;;;0.00;0.00;;;17.40;82.90;;;;;;4174919;28;20452;-73
2022/10/06 07:02:59;;;;;;;0.00;0.00;;;17.40;82.70;;;;;;4177420;28;20502;-73
2022/10/06 07:05:45;;;;;;;0.00;0.00;;;17.40;82.30;;;;;;4189410;28;20048;-73
2022/10/06 07:08:27;;;;;;;0.10;0.10;;;17.40;82.10;;;;;;4177915;28;20052;-74
2022/10/06 07:11:14;;;;;;;0.00;0.00;;;17.40;82.10;;;;;;4180823;28;20051;-74
2022/10/06 07:13:58;;;;;;;0.00;0.00;;;17.40;81.70;;;;;;4158896;28;20197;-74
2022/10/06 07:25:33;;;;;;;0.00;0.00;;;17.40;81.20;;;;;;4192137;28;20050;-74
2022/10/06 07:28:18;;;;;;;0.00;0.00;;;17.30;81.10;;;;;;4176060;28;20099;-74
2022/10/06 07:31:00;;;;;;;0.00;0.00;;;17.40;81.00;;;;;;4189659;28;20103;-74
2022/10/06 07:33:43;;;;;;;0.00;0.00;;;17.40;81.00;;;;;;4185252;28;20052;-75
2022/10/06 07:36:24;;;;;;;0.03;0.03;;;17.40;81.00;;;;;;4170360;28;20051;-74
2022/10/06 07:39:09;;;;;;;0.00;0.00;;;17.30;80.60;;;;;;4174974;28;20055;-75
2022/10/06 07:41:50;;;;;;;0.13;0.13;;;17.40;80.90;;;;;;4178509;28;20071;-75
2022/10/06 07:44:31;;;;;;;0.00;0.00;;;17.40;80.80;;;;;;4172807;28;20060;-74
2022/10/06 07:47:12;;;;;;;0.15;0.15;;;17.40;80.80;;;;;;4177704;28;20071;-74
2022/10/06 07:50:11;;;;;;;0.00;0.00;;;17.40;80.60;;;;;;4190946;28;20043;-73
2022/10/06 07:52:53;;;;;;;0.00;0.00;;;17.50;80.70;;;;;;4180188;28;20063;-73
2022/10/06 07:55:38;;;;;;;0.00;0.00;;;17.50;80.50;;;;;;4192845;28;20560;-72
2022/10/06 07:58:37;;;;;;;0.00;0.00;;;17.50;80.30;;;;;;4178051;28;20506;-71
2022/10/06 08:01:20;;;;;;;0.00;0.00;;;17.60;80.10;;;;;;4191996;28;20403;-72
2022/10/06 08:04:05;;;;;;;0.22;0.22;;;17.60;80.80;;;;;;4191672;28;20048;-72
2022/10/06 08:06:48;;;;;;;0.10;0.10;;;17.70;79.90;;;;;;4192611;28;20063;-73
2022/10/06 08:09:29;;;;;;;0.00;0.00;;;17.70;79.90;;;;;;4192695;28;20102;-72
2022/10/06 08:15:12;;;;;;;0.00;0.00;;;17.80;80.00;;;;;;4190826;28;20067;-71
2022/10/06 08:17:53;;;;;;;0.00;0.00;;;17.80;80.10;;;;;;4190954;28;20097;-71
2022/10/06 08:20:35;;;;;;;0.10;0.10;;;17.80;80.00;;;;;;4203519;28;20043;-75
2022/10/06 08:23:16;;;;;;;0.00;0.00;;;17.80;80.10;;;;;;4185161;28;20055;-74
2022/10/06 08:25:56;;;;;;;1.45;1.35;;;17.90;80.30;;;;;;4192705;28;20123;-74
2022/10/06 08:28:39;;;;;;;0.00;0.00;;;17.90;80.20;;;;;;4190801;28;20059;-73
2022/10/06 08:31:22;;;;;;;0.00;0.00;;;17.90;80.30;;;;;;4186694;28;20082;-73
2022/10/06 08:34:03;;;;;;;0.00;0.00;;;17.80;80.40;;;;;;4190594;28;20089;-73
2022/10/06 08:36:48;;;;;;;0.00;0.00;;;17.90;80.30;;;;;;4192290;28;20055;-74
2022/10/06 08:39:48;;;;;;;0.10;0.10;;;17.90;80.20;;;;;;4192288;28;20063;-74
2022/10/06 08:42:38;;;;;;;0.00;0.00;;;17.90;80.10;;;;;;4177634;28;20060;-74
2022/10/06 08:45:23;;;;;;;0.00;0.00;;;17.80;80.10;;;;;;4189405;28;20854;-74
2022/10/06 08:48:14;;;;;;;0.00;0.00;;;17.90;80.30;;;;;;4190873;28;20063;-74
2022/10/06 08:51:05;;;;;;;0.00;0.00;;;17.90;80.30;;;;;;4190482;28;20048;-74
2022/10/06 08:53:56;;;;;;;0.00;0.00;;;17.90;80.20;;;;;;4178522;28;20065;-73
2022/10/06 08:56:53;;;;;;;0.00;0.00;;;17.90;80.30;;;;;;4191846;28;20179;-74
2022/10/06 08:59:35;;;;;;;0.00;0.00;;;18.00;80.40;;;;;;4174162;28;20048;-74
2022/10/06 09:02:27;;;;;;;0.20;0.20;;;18.00;80.40;;;;;;4177568;28;20386;-74
2022/10/06 09:05:13;;;;;;;0.00;0.00;;;18.00;80.30;;;;;;4167184;28;20055;-74
2022/10/06 09:08:09;;;;;;;0.00;0.00;;;18.00;80.30;;;;;;4174890;28;20399;-75
2022/10/06 09:11:06;;;;;;;0.00;0.00;;;18.00;80.10;;;;;;4191665;28;20055;-74
2022/10/06 09:13:52;;;;;;;0.00;0.00;;;18.10;80.10;;;;;;4174366;28;20407;-73
2022/10/06 09:16:37;;;;;;;0.00;0.00;;;18.20;80.10;;;;;;4174588;28;20124;-75
2022/10/06 09:19:25;;;;;;;0.20;0.20;;;18.20;79.80;;;;;;4169580;28;20522;-74
2022/10/06 09:22:18;;;;;;;1.15;0.80;;;18.20;79.70;;;;;;4175087;28;20052;-74
2022/10/06 09:25:08;;;;;;;0.00;0.00;;;18.20;79.60;;;;;;4177627;28;20110;-74
2022/10/06 09:27:53;;;;;;;1.45;1.30;;;18.20;79.40;;;;;;4173810;28;20059;-73
2022/10/06 09:30:34;;;;;;;0.00;0.00;;;18.20;79.10;;;;;;4174426;28;20142;-73
2022/10/06 09:33:21;;;;;;;0.00;0.00;;;18.30;79.10;;;;;;4190933;28;20494;-73
2022/10/06 09:36:07;;;;;;;0.00;0.00;;;18.30;78.80;;;;;;4162351;28;20044;-73
2022/10/06 09:38:54;;;;;;;0.00;0.00;;;18.30;78.70;;;;;;4190776;28;20048;-74
2022/10/06 09:41:40;;;;;;;0.00;0.00;;;18.30;78.70;;;;;;4190629;28;20051;-74
2022/10/06 09:44:23;;;;;;;0.10;0.10;;;18.30;78.40;;;;;;4174390;28;20047;-74
2022/10/06 09:47:33;;;;;;;0.20;0.20;;;18.30;78.10;;;;;;4190696;28;20047;-73
2022/10/06 09:50:21;;;;;;;0.00;0.00;;;18.30;78.50;;;;;;4199605;28;20071;-73
2022/10/06 09:53:09;;;;;;;0.00;0.00;;;18.40;78.60;;;;;;4181321;28;20130;-72
2022/10/06 09:55:53;;;;;;;1.00;0.90;;;18.40;78.50;;;;;;4190749;28;20047;-72
2022/10/06 09:58:36;;;;;;;3.92;0.65;;;18.40;78.20;;;;;;4183074;28;20704;-72
2022/10/06 10:01:24;;;;;;;0.00;0.00;;;18.40;78.40;;;;;;4178188;28;20121;-72
2022/10/06 10:04:11;;;;;;;0.00;0.00;;;18.40;78.30;;;;;;4190247;28;20055;-73
2022/10/06 10:07:15;;;;;;;0.00;0.00;;;18.40;78.20;;;;;;4179997;28;20166;-74
2022/10/06 10:10:20;;;;;;;0.00;0.00;;;18.40;78.20;;;;;;4185581;28;20055;-74
2022/10/06 10:13:01;;;;;;;0.00;0.00;;;18.40;78.40;;;;;;4182754;28;20047;-75
2022/10/06 10:15:53;;;;;;;0.00;0.00;;;18.40;78.40;;;;;;4172841;28;20815;-76
2022/10/06 10:18:34;;;;;;;0.10;0.10;;;18.40;78.40;;;;;;4170484;28;20190;-74
2022/10/06 10:21:24;;;;;;;0.00;0.00;;;18.40;77.90;;;;;;4174425;28;20178;-73
2022/10/06 10:24:16;;;;;;;0.00;0.00;;;18.40;77.90;;;;;;4161965;28;20059;-71
2022/10/06 10:27:04;;;;;;;0.00;0.00;;;18.40;78.10;;;;;;4175741;28;20546;-71
2022/10/06 10:30:00;;;;;;;0.00;0.00;;;18.40;78.10;;;;;;4178069;28;20391;-70
2022/10/06 10:32:53;;;;;;;0.00;0.00;;;18.40;78.20;;;;;;4189266;28;20048;-71
2022/10/06 10:35:37;;;;;;;0.00;0.00;;;18.40;78.10;;;;;;4190265;28;20090;-72
2022/10/06 10:38:20;;;;;;;0.00;0.00;;;18.50;78.60;;;;;;4190077;28;20048;-74
2022/10/06 10:41:08;;;;;;;0.00;0.00;;;18.50;79.20;;;;;;4159709;28;20059;-75
2022/10/06 10:43:55;;;;;;;0.00;0.00;;;18.60;79.10;;;;;;4193277;28;20502;-75
2022/10/06 10:46:45;;;;;;;0.00;0.00;;;18.60;78.80;;;;;;4179336;28;20423;-76
2022/10/06 10:49:29;;;;;;;0.00;0.00;;;18.70;78.60;;;;;;4192356;28;20120;-76
2022/10/06 10:52:15;;;;;;;0.00;0.00;;;18.70;78.50;;;;;;4187283;28;20395;-76
2022/10/06 10:55:05;;;;;;;0.00;0.00;;;18.80;79.10;;;;;;4194061;28;20138;-76
2022/10/06 10:57:47;;;;;;;0.00;0.00;;;18.80;78.60;;;;;;4168363;28;20626;-76
2022/10/06 11:00:34;;;;;;;0.00;0.00;;;18.80;77.70;;;;;;4176368;28;20586;-76
2022/10/06 11:03:15;;;;;;;0.00;0.00;;;18.80;77.50;;;;;;4187558;28;20102;-78
2022/10/06 11:06:13;;;;;;;0.00;0.00;;;18.90;77.50;;;;;;4192627;28;20430;-78
2022/10/06 11:09:01;;;;;;;12.10;1.00;;;18.90;77.20;;;;;;4188585;28;20071;-77
2022/10/06 11:11:54;;;;;;;0.00;0.00;;;18.90;76.80;;;;;;4155861;28;20095;-77
2022/10/06 11:14:48;;;;;;;0.00;0.00;;;19.00;76.20;;;;;;4173205;28;20126;-77
2022/10/06 11:17:43;;;;;;;0.00;0.00;;;19.00;75.80;;;;;;4163982;28;20048;-79
2022/10/06 11:20:45;;;;;;;0.00;0.00;;;19.00;76.20;;;;;;4163427;28;20063;-76
2022/10/06 11:23:44;;;;;;;0.00;0.00;;;19.00;76.20;;;;;;4175724;28;20816;-74
2022/10/06 11:26:56;;;;;;;0.00;0.00;;;19.10;76.30;;;;;;4176474;28;20060;-73
2022/10/06 11:29:47;;;;;;;0.52;0.52;;;19.10;76.30;;;;;;4177775;28;20055;-75
2022/10/06 11:32:45;;;;;;;0.00;0.00;;;19.10;75.90;;;;;;4192071;28;20101;-75
2022/10/06 11:35:28;;;;;;;0.10;0.10;;;19.10;76.00;;;;;;4180553;28;20063;-75
2022/10/06 11:38:16;;;;;;;0.00;0.00;;;19.20;76.10;;;;;;4186798;28;20476;-73
2022/10/06 11:41:08;;;;;;;0.00;0.00;;;19.20;76.10;;;;;;4160049;28;20160;-75
2022/10/06 11:43:59;;;;;;;1.00;0.80;;;19.20;76.10;;;;;;4164247;28;20060;-75
2022/10/06 11:46:45;;;;;;;0.00;0.00;;;19.20;76.00;;;;;;4186354;28;20059;-76
2022/10/06 11:49:50;;;;;;;0.00;0.00;;;19.20;76.00;;;;;;4189093;28;20060;-73
2022/10/06 11:52:46;;;;;;;0.00;0.00;;;19.20;76.00;;;;;;4187795;28;20357;-73
2022/10/06 11:55:27;;;;;;;0.00;0.00;;;19.30;76.00;;;;;;4180908;28;20070;-73
2022/10/06 11:58:15;;;;;;;0.00;0.00;;;19.30;75.60;;;;;;4191750;28;20521;-77
2022/10/06 12:01:46;;;;;;;0.00;0.00;;;19.30;76.00;;;;;;4193218;28;20548;-76
2022/10/06 12:04:27;;;;;;;0.00;0.00;;;19.30;76.40;;;;;;4191177;28;20177;-74
2022/10/06 12:07:10;;;;;;;7.97;2.55;;;19.40;75.80;;;;;;4181510;28;20769;-76
2022/10/06 12:09:51;;;;;;;0.17;0.17;;;19.40;74.90;;;;;;4175566;28;20052;-74
2022/10/06 12:12:45;;;;;;;1.42;1.33;;;19.40;74.00;;;;;;4175133;28;20060;-73
2022/10/06 12:16:12;;;;;;;26.63;5.85;;;19.40;73.40;;;;;;4160859;28;20052;-75
2022/10/06 12:19:19;;;;;;;0.00;0.00;;;19.40;72.60;;;;;;4184182;28;20047;-73
2022/10/06 12:22:15;;;;;;;3.53;3.10;;;19.40;72.00;;;;;;4163465;28;20055;-74
2022/10/06 12:25:04;;;;;;;0.00;0.00;;;19.40;71.50;;;;;;4188080;28;20047;-72
2022/10/06 12:28:00;;;;;;;0.28;0.28;;;19.40;70.90;;;;;;4193083;28;20478;-73
2022/10/06 12:31:01;;;;;;;0.10;0.10;;;19.40;70.40;;;;;;4191691;28;20071;-73
2022/10/06 12:33:43;;;;;;;0.00;0.00;;;19.50;69.90;;;;;;4179213;28;20453;-73
2022/10/06 12:36:27;;;;;;;0.00;0.00;;;19.50;70.10;;;;;;4192456;28;20051;-74
2022/10/06 12:39:22;;;;;;;0.13;0.13;;;19.50;70.40;;;;;;4191514;28;20071;-74
2022/10/06 12:42:07;;;;;;;0.00;0.00;;;19.50;70.80;;;;;;4174755;28;20554;-75
2022/10/06 12:44:50;;;;;;;0.00;0.00;;;19.50;71.20;;;;;;4191655;28;20082;-75
2022/10/06 12:47:37;;;;;;;0.00;0.00;;;19.50;71.50;;;;;;4191942;28;20059;-75
2022/10/06 12:50:25;;;;;;;0.43;0.43;;;19.50;71.70;;;;;;4190783;28;20129;-73
2022/10/06 12:53:13;;;;;;;0.00;0.00;;;19.60;71.60;;;;;;4175538;28;20048;-74
2022/10/06 12:56:01;;;;;;;0.28;0.28;;;19.60;72.00;;;;;;4175657;28;20083;-75
2022/10/06 12:58:42;;;;;;;0.60;0.60;;;19.60;73.30;;;;;;4174566;28;20051;-74
2022/10/06 13:01:24;;;;;;;0.00;0.00;;;19.60;72.70;;;;;;4181075;28;20046;-75
2022/10/06 13:04:05;;;;;;;0.00;0.00;;;19.60;72.80;;;;;;4190810;28;20585;-73
2022/10/06 13:06:49;;;;;;;0.00;0.00;;;19.70;72.70;;;;;;4192118;28;20174;-74
2022/10/06 13:09:30;;;;;;;0.00;0.00;;;19.70;72.70;;;;;;4190644;28;20055;-73
2022/10/06 13:12:27;;;;;;;0.00;0.00;;;19.70;73.10;;;;;;4191790;28;20050;-73
2022/10/06 13:15:20;;;;;;;0.00;0.00;;;19.70;73.20;;;;;;4174251;28;20044;-73
2022/10/06 13:18:10;;;;;;;0.38;0.38;;;19.80;73.00;;;;;;4174303;28;20079;-74
2022/10/06 13:20:52;;;;;;;0.00;0.00;;;19.80;72.90;;;;;;4165154;28;20048;-74
2022/10/06 13:23:34;;;;;;;0.00;0.00;;;19.80;72.80;;;;;;4175816;28;20052;-75
2022/10/06 13:26:21;;;;;;;0.00;0.00;;;19.80;72.60;;;;;;4186087;28;20085;-74
2022/10/06 13:29:04;;;;;;;0.00;0.00;;;19.80;72.70;;;;;;4165381;28;20056;-73
2022/10/06 13:31:47;;;;;;;0.00;0.00;;;19.90;72.60;;;;;;4181678;28;20083;-73
2022/10/06 13:34:40;;;;;;;0.00;0.00;;;19.90;72.90;;;;;;4182360;28;20064;-74
2022/10/06 13:37:21;;;;;;;0.00;0.00;;;19.90;72.70;;;;;;4178855;28;20179;-73
2022/10/06 13:40:02;;;;;;;0.20;0.20;;;20.00;72.60;;;;;;4178638;28;20536;-74
2022/10/06 13:42:51;;;;;;;0.00;0.00;;;20.00;72.80;;;;;;4174362;28;20403;-74
2022/10/06 13:45:33;;;;;;;0.00;0.00;;;20.00;72.70;;;;;;4174037;28;20067;-75
2022/10/06 13:48:18;;;;;;;0.00;0.00;;;20.00;72.30;;;;;;4174640;28;20147;-76
2022/10/06 13:50:59;;;;;;;0.00;0.00;;;20.00;72.50;;;;;;4177715;28;20059;-75
2022/10/06 13:53:40;;;;;;;0.00;0.00;;;20.00;73.10;;;;;;4178426;28;20063;-73
2022/10/06 13:56:37;;;;;;;0.00;0.00;;;20.00;72.30;;;;;;4174106;28;20052;-73
2022/10/06 13:59:34;;;;;;;0.00;0.00;;;20.10;72.50;;;;;;4186978;28;20598;-72
2022/10/06 14:02:24;;;;;;;0.00;0.00;;;20.10;72.50;;;;;;4173821;28;20056;-73
2022/10/06 14:05:25;;;;;;;0.00;0.00;;;20.10;72.60;;;;;;4162938;28;20052;-74
2022/10/06 14:08:20;;;;;;;0.00;0.00;;;20.20;72.10;;;;;;4156845;28;20072;-74
2022/10/06 14:11:04;;;;;;;0.00;0.00;;;20.20;72.10;;;;;;4157390;28;20480;-74
2022/10/06 14:13:51;;;;;;;0.00;0.00;;;20.20;72.30;;;;;;4162200;28;20071;-74
2022/10/06 14:16:32;;;;;;;0.00;0.00;;;20.20;71.80;;;;;;4186632;28;20170;-75
2022/10/06 14:19:28;;;;;;;;;;;20.20;72.10;;;;;;4170514;28;20052;-74
2022/10/06 14:22:30;;;;;;;0.00;0.00;;;20.20;71.90;;;;;;4161124;28;20288;-74
2022/10/06 14:25:11;;;;;;;0.00;0.00;;;20.30;72.30;;;;;;4191069;28;20051;-73
2022/10/06 14:27:53;;;;;;;0.00;0.00;;;20.30;72.20;;;;;;4170245;28;20060;-74
2022/10/06 14:30:34;;;;;;;0.00;0.00;;;20.30;71.70;;;;;;4167532;28;20122;-74
2022/10/06 14:33:15;;;;;;;0.00;0.00;;;20.30;71.50;;;;;;4193259;28;20048;-73
2022/10/06 14:35:57;;;;;;;;;;;20.30;71.70;;;;;;4194811;28;20059;-74